Terminal Aerodrome Forecast
Issued by NWS Brownsville, TX

Home | Current Version | Previous Version | Text Only | Print | Product List | Glossary On
Versions: 1 2 3 4 5 6 7 8 9 10 11 12 13 14 15 16 17 18 19
000
FTUS44 KBRO 301121
TAFHRL
TAF
KHRL 301121Z 3012/3112 12004KT 6SM BR FEW018 SCT028
      TEMPO 3012/3014 5SM BR FEW015
     FM301600 14015G20KT P6SM BKN025
     FM310200 14008KT P6SM FEW030 BKN200=

USA.gov is the U.S. government's official web portal to all federal, state and local government web resources and services.